»·PEaware :: SWA4331 KSAN-KOAK

SWA4331 :: KSAN-KOAK

FLIGHT INFORMATION

Flight Status: Arrived
Operator:
Southwest Airlines
More flights by this operator :: More flights under this callsign
Pilot: John M. (183)
Aircraft: BOEING 737-800
(B738)
More flights by this aircraft type
Origin: KSAN San Diego Intl-Lindbergh
United States
Destination: KOAK Metro Oakland Intl
United States
More flights between these airports :: More routes between these airports
Route: PADRZ2 OROSZ COREZ RGOOD EMZOH3
File this flight plan on PilotEdge
Remarks:
Altitude:
(Current/Filed)
38,000ft
Speed:
(Current/Filed)
458kts
Departed: 12-Oct-19 03:32 PM
Arrived: 12-Oct-19 04:37 PM
Distance/Time
Traveled:
387nm/1:05
Distance/Time
To Go:
Arrived

Flight Plot

Page will automatically refresh every two minutes.

Flight plan parsing failed; only flown route is shown


Map Options




Map Legend


Flown Route
Filed Route
Departure Airport
Arrival Airport
Navaid (VOR, NDB)
Fix

Horizontal Profiles

Position Reports

Time Latitude Longitude Heading Altitude Ground
Speed
12-Oct-19 14:53 32.733853 -117.198126 207 25ft 0kts
12-Oct-19 14:54 32.733853 -117.198126 207 25ft 0kts
12-Oct-19 14:55 32.733853 -117.198126 207 25ft 0kts
12-Oct-19 14:56 32.733853 -117.198126 207 25ft 0kts
12-Oct-19 14:57 32.733853 -117.198126 207 25ft 0kts
12-Oct-19 14:58 32.733853 -117.198126 207 25ft 0kts
12-Oct-19 14:59 32.733853 -117.198126 207 25ft 0kts
12-Oct-19 15:00 32.733853 -117.198126 207 24ft 0kts
12-Oct-19 15:01 32.733853 -117.198126 207 24ft 0kts
12-Oct-19 15:02 32.733853 -117.198126 207 24ft 0kts
12-Oct-19 15:03 32.733853 -117.198126 207 24ft 0kts
12-Oct-19 15:04 32.733853 -117.198126 207 25ft 0kts
12-Oct-19 15:05 32.733853 -117.198126 207 25ft 0kts
12-Oct-19 15:06 32.733853 -117.198126 207 25ft 0kts
12-Oct-19 15:07 32.733853 -117.198126 207 25ft 0kts
12-Oct-19 15:08 32.733853 -117.198126 207 25ft 0kts
12-Oct-19 15:09 32.733853 -117.198126 207 25ft 0kts
12-Oct-19 15:10 32.733853 -117.198126 207 25ft 0kts
12-Oct-19 15:11 32.733853 -117.198126 207 25ft 0kts
12-Oct-19 15:12 32.733853 -117.198126 207 25ft 0kts
12-Oct-19 15:13 32.733853 -117.198126 207 25ft 0kts
12-Oct-19 15:14 32.733853 -117.198126 207 25ft 0kts
12-Oct-19 15:15 32.733853 -117.198126 207 25ft 0kts
12-Oct-19 15:16 32.734187 -117.197940 185 25ft 2kts
12-Oct-19 15:17 32.734610 -117.198251 106 25ft 1kts
12-Oct-19 15:18 32.734624 -117.198321 105 25ft 0kts
12-Oct-19 15:19 32.734624 -117.198321 105 25ft 0kts
12-Oct-19 15:20 32.734624 -117.198321 105 25ft 0kts
12-Oct-19 15:21 32.734624 -117.198321 105 25ft 0kts
12-Oct-19 15:22 32.734621 -117.198310 105 25ft 0kts
12-Oct-19 15:23 32.734299 -117.196997 106 25ft 10kts
12-Oct-19 15:24 32.733455 -117.193524 106 25ft 12kts
12-Oct-19 15:25 32.732098 -117.187918 106 24ft 22kts
12-Oct-19 15:26 32.730408 -117.180972 107 25ft 21kts
12-Oct-19 15:27 32.729478 -117.176854 76 25ft 0kts
12-Oct-19 15:28 32.729478 -117.176854 76 25ft 0kts
12-Oct-19 15:29 32.729482 -117.176837 76 25ft 0kts
12-Oct-19 15:30 32.730140 -117.175766 320 25ft 8kts
12-Oct-19 15:31 32.736844 -117.202855 285 423ft 160kts
12-Oct-19 15:32 32.758601 -117.248997 306 2219ft 198kts
12-Oct-19 15:33 32.794871 -117.310567 304 4319ft 262kts
12-Oct-19 15:34 32.837149 -117.376607 307 7027ft 286kts
12-Oct-19 15:35 32.886155 -117.452578 306 10179ft 294kts
12-Oct-19 15:36 32.940310 -117.536794 305 12365ft 333kts
12-Oct-19 15:37 32.997747 -117.626415 306 15308ft 345kts
12-Oct-19 15:38 33.057086 -117.718781 309 18118ft 356kts
12-Oct-19 15:39 33.133271 -117.800242 317 20681ft 369kts
12-Oct-19 15:40 33.213265 -117.881135 319 22607ft 380kts
12-Oct-19 15:41 33.295780 -117.961278 319 22957ft 380kts
12-Oct-19 15:42 33.378017 -118.041687 319 23350ft 384kts
12-Oct-19 15:43 33.461674 -118.123675 319 25412ft 393kts
12-Oct-19 15:44 33.547567 -118.208076 318 27294ft 402kts
12-Oct-19 15:45 33.646586 -118.275326 332 28959ft 417kts
12-Oct-19 15:46 33.753555 -118.334027 331 30486ft 426kts
12-Oct-19 15:47 33.863641 -118.389773 332 32184ft 428kts
12-Oct-19 15:48 33.973360 -118.445212 332 33870ft 424kts
12-Oct-19 15:49 34.082429 -118.500595 331 35310ft 423kts
12-Oct-19 15:50 34.190903 -118.555781 330 36532ft 422kts
12-Oct-19 15:51 34.299538 -118.611207 330 37538ft 424kts
12-Oct-19 15:52 34.408927 -118.665422 330 38014ft 438kts
12-Oct-19 15:53 34.515903 -118.737064 322 38010ft 440kts
12-Oct-19 15:54 34.621565 -118.811883 323 38010ft 439kts
12-Oct-19 15:55 34.727497 -118.887062 323 37991ft 439kts
12-Oct-19 15:56 34.832882 -118.962072 323 37993ft 440kts
12-Oct-19 15:57 34.938859 -119.037723 323 37975ft 439kts
12-Oct-19 15:58 35.044198 -119.113151 323 37973ft 440kts
12-Oct-19 15:59 35.149645 -119.188904 324 37968ft 440kts
12-Oct-19 16:00 35.255148 -119.264900 324 37971ft 439kts
12-Oct-19 16:01 35.360421 -119.340971 324 37970ft 440kts
12-Oct-19 16:02 35.465884 -119.417401 324 37953ft 440kts
12-Oct-19 16:03 35.569292 -119.496482 317 37947ft 435kts
12-Oct-19 16:05 35.662295 -119.591571 316 37940ft 435kts
12-Oct-19 16:06 35.755639 -119.687057 315 37947ft 436kts
12-Oct-19 16:07 35.848421 -119.782246 316 37948ft 435kts
12-Oct-19 16:08 35.939558 -119.880336 312 37952ft 434kts
12-Oct-19 16:09 36.026351 -119.983693 312 37948ft 434kts
12-Oct-19 16:10 36.113707 -120.087438 312 37941ft 435kts
12-Oct-19 16:11 36.200907 -120.191347 312 37936ft 434kts
12-Oct-19 16:12 36.287729 -120.295144 312 37933ft 435kts
12-Oct-19 16:13 36.374901 -120.399704 312 37855ft 438kts
12-Oct-19 16:14 36.462164 -120.504698 313 35279ft 437kts
12-Oct-19 16:15 36.549070 -120.609234 316 32332ft 441kts
12-Oct-19 16:16 36.640533 -120.709933 316 29897ft 431kts
12-Oct-19 16:17 36.728896 -120.808020 317 27470ft 417kts
12-Oct-19 16:18 36.814331 -120.903004 317 25083ft 404kts
12-Oct-19 16:19 36.897096 -120.994790 317 22736ft 393kts
12-Oct-19 16:20 36.977492 -121.084217 317 20418ft 382kts
12-Oct-19 16:21 37.055737 -121.171510 318 18172ft 371kts
12-Oct-19 16:22 37.131669 -121.256461 318 16483ft 358kts
12-Oct-19 16:22 37.191875 -121.326529 317 14172ft 348kts
12-Oct-19 16:23 37.262442 -121.408618 317 12028ft 340kts
12-Oct-19 16:25 37.340773 -121.499974 316 10281ft 304kts
12-Oct-19 16:26 37.399012 -121.567631 317 9272ft 277kts
12-Oct-19 16:26 37.445130 -121.623532 307 8118ft 273kts
12-Oct-19 16:27 37.489318 -121.700764 304 7017ft 267kts
12-Oct-19 16:28 37.529560 -121.778880 288 6735ft 257kts
12-Oct-19 16:30 37.544239 -121.883001 277 5235ft 259kts
12-Oct-19 16:30 37.552712 -121.955711 278 4633ft 238kts
12-Oct-19 16:31 37.570517 -122.027550 318 3818ft 199kts
12-Oct-19 16:32 37.608749 -122.075251 310 2887ft 193kts
12-Oct-19 16:33 37.642837 -122.126534 310 1839ft 187kts
12-Oct-19 16:34 37.672471 -122.170818 309 934ft 152kts
12-Oct-19 16:35 37.699169 -122.210798 309 140ft 146kts
12-Oct-19 16:36 37.713624 -122.231090 340 14ft 17kts
12-Oct-19 16:37 37.713640 -122.228754 129 14ft 16kts
12-Oct-19 16:38 37.711072 -122.224189 50 14ft 10kts
12-Oct-19 16:39 37.712299 -122.221051 129 14ft 12kts
12-Oct-19 16:40 37.709577 -122.217217 127 14ft 13kts
12-Oct-19 16:41 37.709710 -122.214017 62 14ft 4kts
12-Oct-19 16:42 37.709147 -122.213397 150 14ft 0kts
12-Oct-19 16:43 37.709144 -122.213395 150 14ft 0kts

Navigation Log

Ident Type
Flight plan parsing failed, navigation log unavailable